createdAt,value
2023-04-21T00:02:19.790Z,6.40
2023-04-21T00:04:46.595Z,6.40
2023-04-21T00:07:14.727Z,6.40
2023-04-21T00:09:41.885Z,6.40
2023-04-21T00:12:08.622Z,6.30
2023-04-21T00:14:35.214Z,6.40
2023-04-21T00:17:01.845Z,6.40
2023-04-21T00:19:29.621Z,6.40
2023-04-21T00:21:58.817Z,6.40
2023-04-21T00:24:26.080Z,6.40
2023-04-21T00:26:52.765Z,6.40
2023-04-21T00:29:19.596Z,6.50
2023-04-21T00:31:46.545Z,6.40
2023-04-21T00:34:13.172Z,6.50
2023-04-21T00:36:39.756Z,6.50
2023-04-21T00:39:06.400Z,6.40
2023-04-21T00:41:35.238Z,6.40
2023-04-21T00:44:06.816Z,6.40
2023-04-21T00:46:34.514Z,6.40
2023-04-21T00:49:05.452Z,6.40
2023-04-21T00:51:34.179Z,6.40
2023-04-21T00:54:03.804Z,6.30
2023-04-21T00:56:32.631Z,6.40
2023-04-21T00:59:00.407Z,6.40
2023-04-21T01:01:29.793Z,6.40
2023-04-21T01:04:00.978Z,6.40
2023-04-21T01:06:34.901Z,6.40
2023-04-21T01:09:02.029Z,6.40
2023-04-21T01:11:28.650Z,6.40
2023-04-21T01:13:55.948Z,6.40
2023-04-21T01:16:24.032Z,6.40
2023-04-21T01:18:53.282Z,6.40
2023-04-21T01:21:21.618Z,6.40
2023-04-21T01:23:48.502Z,6.40
2023-04-21T01:26:19.046Z,6.40
2023-04-21T01:28:47.624Z,6.40
2023-04-21T01:31:15.185Z,6.40
2023-04-21T01:33:42.169Z,6.40
2023-04-21T01:36:09.813Z,6.40
2023-04-21T01:38:40.956Z,6.50
2023-04-21T01:41:08.678Z,6.50
2023-04-21T01:43:35.548Z,6.40
2023-04-21T01:46:02.314Z,6.40
2023-04-21T01:48:29.046Z,6.40
2023-04-21T01:50:55.672Z,6.40
2023-04-21T01:53:22.379Z,6.40
2023-04-21T01:55:49.023Z,6.50
2023-04-21T01:58:15.675Z,6.50
2023-04-21T02:00:42.228Z,6.50
2023-04-21T02:03:08.967Z,6.50
2023-04-21T02:05:35.617Z,6.50
2023-04-21T02:08:02.238Z,6.50
2023-04-21T02:10:28.850Z,6.50
2023-04-21T02:12:55.583Z,6.50
2023-04-21T02:15:22.191Z,6.60
2023-04-21T02:17:48.811Z,6.50
2023-04-21T02:20:15.423Z,6.60
2023-04-21T02:22:42.105Z,6.60
2023-04-21T02:25:09.029Z,6.60
2023-04-21T02:27:35.718Z,6.60
2023-04-21T02:30:02.482Z,6.60
2023-04-21T02:32:29.360Z,6.50
2023-04-21T02:34:56.191Z,6.50
2023-04-21T02:37:22.914Z,6.60
2023-04-21T02:39:49.546Z,6.60
2023-04-21T02:42:16.124Z,6.60
2023-04-21T02:44:43.233Z,6.50
2023-04-21T02:47:09.877Z,6.40
2023-04-21T02:49:41.293Z,6.40
2023-04-21T02:52:07.897Z,6.50
2023-04-21T02:54:34.544Z,6.40
2023-04-21T02:57:01.963Z,6.40
2023-04-21T02:59:29.029Z,6.40
2023-04-21T03:01:55.734Z,6.40
2023-04-21T03:04:24.280Z,6.40
2023-04-21T03:06:52.101Z,6.30
2023-04-21T03:09:19.090Z,6.30
2023-04-21T03:11:45.915Z,6.30
2023-04-21T03:14:12.559Z,6.30
2023-04-21T03:16:39.187Z,6.30
2023-04-21T03:19:05.831Z,6.30
2023-04-21T03:21:32.531Z,6.40
2023-04-21T03:23:59.168Z,6.30
2023-04-21T03:26:25.875Z,6.30
2023-04-21T03:28:52.492Z,6.30
2023-04-21T03:31:19.136Z,6.30
2023-04-21T03:33:45.887Z,6.30
2023-04-21T03:36:12.499Z,6.30
2023-04-21T03:38:39.155Z,6.40
2023-04-21T03:41:05.883Z,6.40
2023-04-21T03:43:32.484Z,6.30
2023-04-21T03:45:59.227Z,6.30
2023-04-21T03:48:27.498Z,6.30
2023-04-21T03:50:54.085Z,6.30
2023-04-21T03:53:20.780Z,6.30
2023-04-21T03:55:50.094Z,6.20
2023-04-21T03:58:17.133Z,6.20
2023-04-21T04:00:43.769Z,6.20
2023-04-21T04:03:10.432Z,6.20
2023-04-21T04:05:37.270Z,6.20
2023-04-21T04:08:04.092Z,6.20
2023-04-21T04:10:30.736Z,6.20
2023-04-21T04:12:57.317Z,6.10
2023-04-21T04:15:23.893Z,6.10
2023-04-21T04:17:50.796Z,6.10
2023-04-21T04:20:17.440Z,6.10
2023-04-21T04:22:44.070Z,6.10
2023-04-21T04:25:12.764Z,6.10
2023-04-21T04:27:39.450Z,6.10
2023-04-21T04:35:00.825Z,6.00
2023-04-21T04:37:28.077Z,6.00
2023-04-21T04:39:54.739Z,5.90
2023-04-21T04:42:21.334Z,5.90
2023-04-21T04:44:48.062Z,5.80
2023-04-21T04:47:14.837Z,5.80
2023-04-21T04:49:41.448Z,5.80
2023-04-21T04:52:08.149Z,5.80
2023-04-21T04:54:34.771Z,5.80
2023-04-21T04:57:02.362Z,5.80
2023-04-21T04:59:30.448Z,5.80
2023-04-21T05:01:57.564Z,5.90
2023-04-21T05:04:24.548Z,5.90
2023-04-21T05:06:52.046Z,5.90
2023-04-21T05:09:18.672Z,5.80
2023-04-21T05:11:45.293Z,5.80
2023-04-21T05:14:11.977Z,5.90
2023-04-21T05:16:38.658Z,5.90
2023-04-21T05:19:05.522Z,6.00
2023-04-21T05:21:33.358Z,6.10
2023-04-21T05:24:00.872Z,6.10
2023-04-21T05:26:28.971Z,6.10
2023-04-21T05:28:56.648Z,6.20
2023-04-21T05:31:24.803Z,6.20
2023-04-21T05:33:51.794Z,6.30
2023-04-21T05:36:20.120Z,6.30
2023-04-21T05:38:46.865Z,6.40
2023-04-21T05:41:13.451Z,6.40
2023-04-21T05:43:40.050Z,6.60
2023-04-21T05:46:10.911Z,6.70
2023-04-21T05:48:37.554Z,6.70
2023-04-21T05:51:11.405Z,6.80
2023-04-21T05:53:38.616Z,6.90
2023-04-21T05:56:06.256Z,6.90
2023-04-21T05:58:34.081Z,6.90
2023-04-21T06:01:00.686Z,7.10
2023-04-21T06:03:27.442Z,7.20
2023-04-21T06:05:55.338Z,7.30
2023-04-21T06:08:22.797Z,7.40
2023-04-21T06:20:37.825Z,7.50
2023-04-21T06:30:25.658Z,8.10
2023-04-21T06:32:52.355Z,9.10
2023-04-21T06:40:16.033Z,8.90
2023-04-21T06:42:42.900Z,9.50
2023-04-21T06:45:10.330Z,9.70
2023-04-21T07:31:48.157Z,9.70
2023-04-21T07:41:36.193Z,10.50
2023-04-21T07:44:02.858Z,11.10
2023-04-21T07:46:32.756Z,11.10
2023-04-21T07:49:02.786Z,11.40
2023-04-21T07:51:31.631Z,11.20
2023-04-21T07:53:58.284Z,11.30
2023-04-21T07:56:24.876Z,11.20
2023-04-21T07:58:51.519Z,11.20
2023-04-21T08:01:18.190Z,11.20
2023-04-21T08:03:45.009Z,11.30
2023-04-21T08:06:12.213Z,11.30
2023-04-21T08:08:38.961Z,11.30
2023-04-21T08:11:05.669Z,11.50
2023-04-21T08:13:32.437Z,11.80
2023-04-21T08:15:59.109Z,12.00
2023-04-21T08:18:25.792Z,12.20
2023-04-21T08:20:52.704Z,12.30
2023-04-21T08:23:19.970Z,12.10
2023-04-21T08:25:46.681Z,12.20
2023-04-21T08:28:15.442Z,12.20
2023-04-21T09:35:43.501Z,12.40
2023-04-21T09:38:11.915Z,14.40
2023-04-21T09:40:40.295Z,14.40
2023-04-21T09:45:40.103Z,14.50
2023-04-21T09:48:09.937Z,14.70
2023-04-21T09:53:12.049Z,14.90
2023-04-21T09:55:41.590Z,14.80
2023-04-21T10:10:39.557Z,15.00
2023-04-21T10:13:06.690Z,15.20
2023-04-21T12:00:14.416Z,15.30
2023-04-21T12:02:41.434Z,17.20
2023-04-21T12:05:13.368Z,17.10
2023-04-21T20:53:22.875Z,20.50
